createdAt,value
2018-09-14T00:02:05.005Z,11.79
2018-09-14T00:04:34.505Z,11.80
2018-09-14T00:07:02.985Z,11.81
2018-09-14T00:09:31.425Z,11.80
2018-09-14T00:12:00.168Z,11.80
2018-09-14T00:14:28.629Z,11.82
2018-09-14T00:16:57.417Z,11.82
2018-09-14T00:19:26.220Z,11.82
2018-09-14T00:21:54.778Z,11.83
2018-09-14T00:24:23.227Z,11.82
2018-09-14T00:26:51.971Z,11.82
2018-09-14T00:29:20.670Z,11.82
2018-09-14T00:31:49.102Z,11.81
2018-09-14T00:34:18.468Z,11.79
2018-09-14T00:36:47.001Z,11.79
2018-09-14T00:39:16.141Z,11.80
2018-09-14T00:41:44.645Z,11.81
2018-09-14T00:44:13.063Z,11.80
2018-09-14T00:46:41.588Z,11.81
2018-09-14T00:49:10.449Z,11.80
2018-09-14T00:51:38.914Z,11.80
2018-09-14T00:54:07.834Z,11.80
2018-09-14T00:56:36.361Z,11.79
2018-09-14T00:59:05.221Z,11.82
2018-09-14T01:01:34.685Z,11.81
2018-09-14T01:04:03.470Z,11.79
2018-09-14T01:06:31.967Z,11.77
2018-09-14T01:09:00.394Z,11.76
2018-09-14T01:11:29.018Z,11.74
2018-09-14T01:13:57.509Z,11.73
2018-09-14T01:16:25.949Z,11.74
2018-09-14T01:18:54.877Z,11.73
2018-09-14T01:21:24.091Z,11.16
2018-09-14T01:23:52.514Z,11.73
2018-09-14T01:26:21.329Z,11.71
2018-09-14T01:28:49.792Z,11.72
2018-09-14T01:31:18.850Z,11.76
2018-09-14T01:33:47.705Z,11.75
2018-09-14T01:36:16.961Z,11.76
2018-09-14T01:38:51.799Z,11.76
2018-09-14T01:41:20.296Z,11.76
2018-09-14T01:43:48.749Z,11.80
2018-09-14T01:46:17.585Z,11.78
2018-09-14T01:48:46.101Z,11.76
2018-09-14T01:51:15.228Z,11.73
2018-09-14T01:53:44.245Z,11.71
2018-09-14T01:56:12.792Z,11.70
2018-09-14T01:58:41.206Z,11.70
2018-09-14T02:01:10.309Z,11.71
2018-09-14T02:03:38.808Z,11.73
2018-09-14T02:06:07.252Z,11.72
2018-09-14T02:08:36.057Z,11.72
2018-09-14T02:11:05.071Z,11.72
2018-09-14T02:13:33.510Z,11.72
2018-09-14T02:16:02.201Z,11.66
2018-09-14T02:18:30.782Z,11.63
2018-09-14T02:20:59.662Z,11.64
2018-09-14T02:23:28.579Z,11.62
2018-09-14T02:25:57.019Z,11.60
2018-09-14T02:28:25.466Z,11.61
2018-09-14T02:30:54.222Z,11.63
2018-09-14T02:33:22.781Z,11.61
2018-09-14T02:35:51.210Z,11.59
2018-09-14T02:38:19.974Z,11.59
2018-09-14T02:40:48.812Z,11.59
2018-09-14T02:43:17.350Z,11.59
2018-09-14T02:45:45.893Z,11.59
2018-09-14T02:48:14.611Z,11.60
2018-09-14T02:50:43.053Z,11.60
2018-09-14T02:53:12.074Z,11.60
2018-09-14T02:55:40.558Z,11.59
2018-09-14T02:58:09.274Z,11.59
2018-09-14T03:00:37.855Z,11.57
2018-09-14T03:03:06.362Z,11.59
2018-09-14T03:05:35.161Z,11.57
2018-09-14T03:08:03.689Z,11.56
2018-09-14T03:10:32.119Z,11.57
2018-09-14T03:13:00.578Z,11.58
2018-09-14T03:15:29.669Z,11.56
2018-09-14T03:17:58.174Z,11.58
2018-09-14T03:20:26.605Z,11.60
2018-09-14T03:22:56.040Z,11.60
2018-09-14T03:25:24.681Z,11.63
2018-09-14T03:27:53.125Z,11.64
2018-09-14T03:30:21.842Z,11.68
2018-09-14T03:32:50.351Z,11.69
2018-09-14T03:35:18.777Z,11.67
2018-09-14T03:37:47.626Z,11.68
2018-09-14T03:40:17.570Z,11.69
2018-09-14T03:42:47.969Z,11.69
2018-09-14T03:45:16.720Z,11.68
2018-09-14T03:47:45.181Z,11.70
2018-09-14T03:50:13.607Z,11.74
2018-09-14T03:52:42.386Z,11.75
2018-09-14T03:55:11.082Z,11.60
2018-09-14T03:57:39.506Z,11.78
2018-09-14T04:00:08.525Z,11.77
2018-09-14T04:02:36.978Z,11.79
2018-09-14T04:05:05.783Z,11.77
2018-09-14T04:07:34.907Z,11.76
2018-09-14T04:10:03.285Z,11.77
2018-09-14T04:12:31.709Z,11.75
2018-09-14T04:15:00.242Z,11.78
2018-09-14T04:17:28.715Z,11.80
2018-09-14T04:19:57.153Z,11.79
2018-09-14T04:22:25.981Z,11.79
2018-09-14T04:24:55.162Z,11.78
2018-09-14T04:27:23.586Z,11.78
2018-09-14T04:29:52.351Z,11.81
2018-09-14T04:32:20.894Z,11.82
2018-09-14T04:34:49.511Z,11.83
2018-09-14T04:37:18.411Z,11.84
2018-09-14T04:39:46.890Z,11.86
2018-09-14T04:42:15.334Z,11.88
2018-09-14T04:44:44.159Z,11.91
2018-09-14T04:47:12.739Z,11.94
2018-09-14T04:49:41.173Z,11.94
2018-09-14T04:52:09.924Z,11.96
2018-09-14T04:54:38.425Z,11.93
2018-09-14T04:57:07.295Z,11.94
2018-09-14T04:59:36.061Z,11.96
2018-09-14T05:02:04.580Z,12.00
2018-09-14T05:04:33.002Z,12.00
2018-09-14T05:07:01.897Z,12.01
2018-09-14T05:09:30.373Z,12.04
2018-09-14T05:11:58.882Z,12.05
2018-09-14T05:14:27.394Z,12.05
2018-09-14T05:16:56.223Z,12.06
2018-09-14T05:19:24.682Z,12.05
2018-09-14T05:21:53.604Z,12.04
2018-09-14T05:24:22.076Z,12.05
2018-09-14T05:26:50.689Z,12.07
2018-09-14T05:29:19.190Z,12.08
2018-09-14T05:31:48.091Z,12.08
2018-09-14T05:34:17.412Z,12.09
2018-09-14T05:36:46.945Z,12.10
2018-09-14T05:39:15.561Z,12.11
2018-09-14T05:41:43.990Z,12.15
2018-09-14T05:44:12.608Z,12.19
2018-09-14T05:46:42.090Z,12.21
2018-09-14T05:49:10.734Z,12.29
2018-09-14T05:51:39.687Z,12.34
2018-09-14T05:54:08.148Z,12.39
2018-09-14T05:56:36.582Z,12.43
2018-09-14T05:59:05.594Z,12.47
2018-09-14T06:01:34.766Z,12.53
2018-09-14T06:04:04.362Z,12.61
2018-09-14T06:06:32.979Z,12.64
2018-09-14T06:09:01.441Z,12.69
2018-09-14T06:11:29.874Z,12.80
2018-09-14T06:13:58.990Z,12.87
2018-09-14T06:16:27.541Z,12.94
2018-09-14T06:18:56.064Z,12.96
2018-09-14T06:21:24.745Z,13.00
2018-09-14T06:23:53.359Z,13.05
2018-09-14T06:26:21.790Z,13.08
2018-09-14T06:28:50.909Z,13.00
2018-09-14T06:31:19.388Z,13.03
2018-09-14T06:33:47.872Z,13.06
2018-09-14T06:36:16.685Z,13.06
2018-09-14T06:38:45.169Z,13.11
2018-09-14T06:41:13.621Z,13.18
2018-09-14T06:43:42.283Z,13.30
2018-09-14T06:46:11.101Z,13.50
2018-09-14T06:48:39.606Z,13.75
2018-09-14T06:51:08.337Z,14.11
2018-09-14T06:53:36.809Z,14.23
2018-09-14T06:56:05.238Z,14.34
2018-09-14T06:58:34.087Z,14.43
2018-09-14T07:01:02.986Z,14.73
2018-09-14T07:03:31.880Z,14.79
2018-09-14T07:06:01.163Z,14.66
2018-09-14T07:08:29.673Z,14.41
2018-09-14T07:10:58.118Z,14.20
2018-09-14T07:13:26.834Z,14.17
2018-09-14T07:15:55.549Z,14.21
2018-09-14T07:18:23.977Z,14.14
2018-09-14T07:20:52.962Z,14.30
2018-09-14T07:23:21.703Z,14.80
2018-09-14T07:25:50.421Z,15.23
2018-09-14T07:28:18.957Z,15.41
2018-09-14T07:30:48.699Z,15.67
2018-09-14T07:33:18.233Z,15.95
2018-09-14T07:35:47.135Z,16.05
2018-09-14T07:38:15.714Z,16.20
2018-09-14T07:40:44.342Z,16.20
2018-09-14T07:43:13.289Z,15.74
2018-09-14T07:45:42.053Z,15.72
2018-09-14T07:48:10.798Z,15.67
2018-09-14T07:50:40.573Z,15.64
2018-09-14T07:53:10.233Z,15.54
2018-09-14T07:55:38.692Z,15.46
2018-09-14T07:58:07.754Z,15.43
2018-09-14T08:00:36.237Z,15.37
2018-09-14T08:03:05.094Z,15.25
2018-09-14T08:05:33.813Z,15.29
2018-09-14T08:08:02.363Z,15.21
2018-09-14T08:10:31.212Z,15.13
2018-09-14T08:12:59.870Z,15.09
2018-09-14T08:15:28.333Z,15.09
2018-09-14T08:17:56.758Z,15.01
2018-09-14T08:20:25.626Z,14.90
2018-09-14T08:22:54.102Z,14.93
2018-09-14T08:25:22.550Z,14.97
2018-09-14T08:27:51.171Z,14.94
2018-09-14T08:30:19.893Z,14.90
2018-09-14T08:32:48.851Z,14.91
2018-09-14T08:35:17.730Z,14.94
2018-09-14T08:37:46.193Z,14.91
2018-09-14T08:40:14.937Z,14.84
2018-09-14T08:42:43.490Z,14.85
2018-09-14T08:45:11.983Z,14.89
2018-09-14T08:47:40.885Z,14.86
2018-09-14T08:50:09.937Z,14.89
2018-09-14T08:52:38.393Z,14.91
2018-09-14T08:55:07.002Z,14.82
2018-09-14T08:57:35.857Z,14.78
2018-09-14T09:00:04.416Z,14.81
2018-09-14T09:02:32.842Z,14.89
2018-09-14T09:05:01.918Z,15.00
2018-09-14T09:07:30.518Z,15.08
2018-09-14T09:09:59.165Z,15.02
2018-09-14T09:12:28.105Z,14.99
2018-09-14T09:14:56.601Z,15.04
2018-09-14T09:17:25.057Z,15.16
2018-09-14T09:19:54.147Z,15.30
2018-09-14T09:22:23.250Z,15.40
2018-09-14T09:24:51.680Z,15.67
2018-09-14T09:27:20.738Z,15.71
2018-09-14T09:29:50.065Z,15.81
2018-09-14T09:32:18.559Z,15.86
2018-09-14T09:34:49.306Z,15.75
2018-09-14T09:37:17.828Z,15.76
2018-09-14T09:39:46.290Z,15.86
2018-09-14T09:42:15.028Z,15.95
2018-09-14T09:44:43.469Z,16.28
2018-09-14T09:47:12.194Z,16.42
2018-09-14T09:49:41.105Z,16.56
2018-09-14T09:52:09.565Z,16.68
2018-09-14T09:54:37.999Z,16.83
2018-09-14T09:57:07.250Z,16.95
2018-09-14T09:59:36.688Z,17.07
2018-09-14T10:02:11.202Z,17.02
2018-09-14T10:05:42.073Z,17.09
2018-09-14T10:08:10.558Z,17.36
2018-09-14T10:10:39.353Z,17.71
2018-09-14T10:13:07.774Z,17.70
2018-09-14T10:15:36.629Z,17.94
2018-09-14T10:18:05.432Z,17.99
2018-09-14T10:20:34.138Z,18.25
2018-09-14T10:23:02.566Z,18.27
2018-09-14T10:25:31.463Z,18.51
2018-09-14T10:28:00.309Z,18.23
2018-09-14T10:30:28.782Z,18.21
2018-09-14T10:32:57.617Z,18.02
2018-09-14T10:35:26.659Z,17.75
2018-09-14T10:37:55.099Z,17.96
2018-09-14T10:40:23.898Z,17.94
2018-09-14T10:42:53.802Z,17.80
2018-09-14T10:45:22.407Z,17.65
2018-09-14T10:47:50.936Z,17.79
2018-09-14T10:50:19.401Z,18.11
2018-09-14T10:52:49.349Z,18.17
2018-09-14T10:55:18.818Z,18.38
2018-09-14T10:57:47.205Z,18.41
2018-09-14T11:00:15.942Z,18.81
2018-09-14T11:02:45.398Z,19.28
2018-09-14T11:05:15.626Z,19.22
2018-09-14T11:07:44.198Z,19.35
2018-09-14T11:10:13.826Z,19.26
2018-09-14T11:12:42.432Z,19.07
2018-09-14T11:15:10.917Z,18.93
2018-09-14T11:17:40.905Z,19.18
2018-09-14T11:20:09.770Z,19.28
2018-09-14T11:22:38.189Z,19.15
2018-09-14T11:25:07.052Z,18.95
2018-09-14T11:27:36.774Z,19.01
2018-09-14T11:30:06.590Z,19.12
2018-09-14T11:32:35.493Z,19.63
2018-09-14T11:35:04.019Z,19.70
2018-09-14T11:37:32.810Z,19.32
2018-09-14T11:40:01.737Z,19.20
2018-09-14T11:42:30.993Z,19.17
2018-09-14T11:44:59.700Z,19.21
2018-09-14T11:47:28.525Z,19.17
2018-09-14T11:49:57.142Z,19.21
2018-09-14T11:52:25.993Z,18.97
2018-09-14T11:54:55.091Z,18.65
2018-09-14T11:57:23.746Z,18.67
2018-09-14T11:59:52.161Z,18.65
2018-09-14T12:02:24.061Z,18.45
2018-09-14T12:04:53.893Z,18.28
2018-09-14T12:07:22.630Z,18.21
2018-09-14T12:09:51.148Z,18.09
2018-09-14T12:12:20.397Z,18.30
2018-09-14T12:14:49.004Z,18.86
2018-09-14T12:17:17.553Z,19.43
2018-09-14T12:19:46.262Z,20.09
2018-09-14T12:22:15.077Z,20.34
2018-09-14T12:24:43.696Z,20.94
2018-09-14T12:27:12.126Z,20.70
2018-09-14T12:29:41.198Z,20.93
2018-09-14T12:32:09.677Z,20.98
2018-09-14T12:34:38.308Z,20.54
2018-09-14T12:37:06.843Z,19.83
2018-09-14T12:39:35.480Z,19.52
2018-09-14T12:42:04.181Z,19.21
2018-09-14T12:44:33.185Z,19.18
2018-09-14T12:47:01.629Z,19.42
2018-09-14T12:49:30.371Z,19.53
2018-09-14T12:51:58.989Z,19.53
2018-09-14T12:54:28.045Z,19.65
2018-09-14T12:56:56.905Z,20.45
2018-09-14T12:59:25.643Z,20.42
2018-09-14T13:01:54.197Z,20.29
2018-09-14T13:04:22.701Z,20.53
2018-09-14T13:06:51.644Z,20.51
2018-09-14T13:09:20.233Z,19.80
2018-09-14T13:11:49.434Z,19.36
2018-09-14T13:14:21.025Z,19.38
2018-09-14T13:16:50.233Z,19.52
2018-09-14T13:19:19.207Z,19.37
2018-09-14T13:21:48.245Z,19.37
2018-09-14T13:24:16.698Z,19.58
2018-09-14T13:26:45.196Z,20.09
2018-09-14T13:29:13.702Z,20.65
2018-09-14T13:31:42.131Z,21.26
2018-09-14T13:34:10.927Z,21.27
2018-09-14T13:36:39.377Z,21.21
2018-09-14T13:39:08.917Z,20.97
2018-09-14T13:41:37.603Z,20.91
2018-09-14T13:44:06.385Z,21.17
2018-09-14T13:46:35.333Z,21.47
2018-09-14T13:49:03.948Z,21.70
2018-09-14T13:51:32.443Z,21.80
2018-09-14T13:54:07.774Z,22.16
2018-09-14T13:56:36.269Z,22.48
2018-09-14T13:59:04.782Z,22.30
2018-09-14T14:01:33.901Z,22.21
2018-09-14T14:04:02.381Z,22.22
2018-09-14T14:06:30.813Z,21.99
2018-09-14T14:08:59.575Z,22.18
2018-09-14T14:11:28.048Z,22.56
2018-09-14T14:13:56.527Z,22.78
2018-09-14T14:16:25.675Z,22.61
2018-09-14T14:18:54.145Z,21.49
2018-09-14T14:21:22.557Z,20.65
2018-09-14T14:23:51.163Z,20.20
2018-09-14T14:26:19.602Z,19.50
2018-09-14T14:28:48.940Z,19.23
2018-09-14T14:31:17.758Z,19.88
2018-09-14T14:33:46.238Z,20.62
2018-09-14T14:36:14.662Z,20.99
2018-09-14T14:38:43.594Z,20.45
2018-09-14T14:41:13.378Z,20.05
2018-09-14T14:43:43.823Z,19.81
2018-09-14T14:46:12.391Z,19.74
2018-09-14T14:48:40.822Z,19.54
2018-09-14T14:51:09.293Z,18.89
2018-09-14T14:53:40.493Z,18.60
2018-09-14T14:56:11.857Z,18.44
2018-09-14T14:58:43.053Z,18.35
2018-09-14T15:01:12.825Z,18.27
2018-09-14T15:03:43.055Z,18.25
2018-09-14T15:06:15.345Z,18.28
2018-09-14T15:08:46.054Z,18.28
2018-09-14T15:11:16.930Z,18.04
2018-09-14T15:13:47.789Z,17.80
2018-09-14T15:16:18.033Z,17.86
2018-09-14T15:18:49.255Z,17.60
2018-09-14T15:21:19.123Z,17.41
2018-09-14T15:23:53.490Z,17.25
2018-09-14T15:26:22.394Z,17.18
2018-09-14T15:28:50.818Z,17.09
2018-09-14T15:31:19.251Z,17.03
2018-09-14T15:33:48.368Z,16.96
2018-09-14T15:36:16.903Z,16.89
2018-09-14T15:38:45.338Z,16.88
2018-09-14T15:41:14.425Z,16.87
2018-09-14T15:43:43.115Z,16.81
2018-09-14T15:46:11.528Z,16.82
2018-09-14T15:48:40.226Z,16.86
2018-09-14T15:51:09.040Z,16.82
2018-09-14T15:53:37.738Z,16.84
2018-09-14T15:56:06.335Z,16.88
2018-09-14T15:58:35.226Z,16.87
2018-09-14T16:01:03.682Z,16.91
2018-09-14T16:03:32.330Z,16.77
2018-09-14T16:06:01.281Z,16.90
2018-09-14T16:08:29.705Z,16.82
2018-09-14T16:10:58.223Z,16.77
2018-09-14T16:13:26.700Z,16.72
2018-09-14T16:15:55.121Z,16.65
2018-09-14T16:18:23.621Z,16.59
2018-09-14T16:20:52.117Z,16.49
2018-09-14T16:23:20.546Z,16.45
2018-09-14T16:25:49.205Z,16.41
2018-09-14T16:28:18.429Z,16.35
2018-09-14T16:30:46.842Z,16.32
2018-09-14T16:33:15.574Z,16.29
2018-09-14T16:35:44.034Z,16.24
2018-09-14T16:38:12.498Z,16.15
2018-09-14T16:40:41.112Z,16.08
2018-09-14T16:43:09.566Z,16.03
2018-09-14T16:45:38.402Z,16.02
2018-09-14T16:48:07.229Z,15.98
2018-09-14T16:50:35.895Z,15.93
2018-09-14T16:53:04.334Z,15.89
2018-09-14T16:55:39.607Z,15.90
2018-09-14T16:58:08.055Z,15.85
2018-09-14T17:00:36.534Z,15.85
2018-09-14T17:03:05.301Z,15.80
2018-09-14T17:05:33.733Z,15.78
2018-09-14T17:08:02.202Z,15.74
2018-09-14T17:10:31.151Z,15.71
2018-09-14T17:12:59.606Z,15.68
2018-09-14T17:15:28.059Z,15.65
2018-09-14T17:17:56.643Z,15.64
2018-09-14T17:20:25.097Z,15.63
2018-09-14T17:22:53.529Z,15.58
2018-09-14T17:25:22.075Z,15.53
2018-09-14T17:27:50.530Z,15.50
2018-09-14T17:30:18.992Z,15.48
2018-09-14T17:32:48.159Z,15.48
2018-09-14T17:35:16.825Z,15.44
2018-09-14T17:37:45.274Z,15.43
2018-09-14T17:40:13.880Z,15.42
2018-09-14T17:42:42.321Z,15.39
2018-09-14T17:45:10.800Z,15.36
2018-09-14T17:47:39.506Z,15.33
2018-09-14T17:50:08.061Z,15.33
2018-09-14T17:52:36.539Z,15.31
2018-09-14T17:55:05.154Z,15.29
2018-09-14T17:57:34.011Z,15.28
2018-09-14T18:00:02.534Z,15.28
2018-09-14T18:02:31.106Z,15.23
2018-09-14T18:04:59.731Z,15.20
2018-09-14T18:07:28.174Z,15.14
2018-09-14T18:09:56.729Z,15.15
2018-09-14T18:12:25.174Z,15.14
2018-09-14T18:14:53.732Z,15.12
2018-09-14T18:17:22.229Z,15.12
2018-09-14T18:19:50.675Z,15.10
2018-09-14T18:22:19.134Z,15.07
2018-09-14T18:24:47.769Z,15.07
2018-09-14T18:27:16.213Z,15.05
2018-09-14T18:29:45.045Z,15.05
2018-09-14T18:32:13.733Z,15.03
2018-09-14T18:34:42.176Z,15.01
2018-09-14T18:37:10.602Z,15.02
2018-09-14T18:39:39.177Z,15.02
2018-09-14T18:42:07.621Z,15.00
2018-09-14T18:44:36.074Z,15.02
2018-09-14T18:47:05.017Z,15.02
2018-09-14T18:49:33.729Z,15.01
2018-09-14T18:52:02.237Z,15.00
2018-09-14T18:54:31.563Z,15.01
2018-09-14T18:57:00.057Z,15.01
2018-09-14T18:59:28.502Z,15.00
2018-09-14T19:01:57.083Z,15.00
2018-09-14T19:04:25.709Z,15.00
2018-09-14T19:06:54.230Z,14.98
2018-09-14T19:09:23.037Z,14.96
2018-09-14T19:11:51.474Z,14.95
2018-09-14T19:14:20.217Z,14.96
2018-09-14T19:16:48.870Z,14.95
2018-09-14T19:19:18.029Z,14.96
2018-09-14T19:21:46.653Z,14.93
2018-09-14T19:24:15.618Z,14.93
2018-09-14T19:26:44.061Z,14.93
2018-09-14T19:29:12.506Z,14.92
2018-09-14T19:31:41.417Z,14.92
2018-09-14T19:34:09.915Z,14.91
2018-09-14T19:36:38.434Z,14.90
2018-09-14T19:39:10.046Z,14.90
2018-09-14T19:41:38.529Z,14.90
2018-09-14T19:44:07.107Z,14.91
2018-09-14T19:46:35.812Z,14.90
2018-09-14T19:49:04.282Z,14.90
2018-09-14T19:51:32.891Z,14.88
2018-09-14T19:54:01.481Z,14.89
2018-09-14T19:56:29.905Z,14.90
2018-09-14T19:58:58.357Z,14.89
2018-09-14T20:01:27.130Z,14.90
2018-09-14T20:03:55.569Z,14.91
2018-09-14T20:06:24.042Z,14.90
2018-09-14T20:08:53.309Z,14.90
2018-09-14T20:11:22.012Z,14.90
2018-09-14T20:13:50.476Z,14.89
2018-09-14T20:16:19.405Z,14.89
2018-09-14T20:18:48.066Z,14.89
2018-09-14T20:21:16.802Z,14.87
2018-09-14T20:23:45.582Z,14.86
2018-09-14T20:26:14.018Z,14.88
2018-09-14T20:28:42.462Z,14.88
2018-09-14T20:31:11.025Z,14.90
2018-09-14T20:33:39.550Z,14.90
2018-09-14T20:36:08.031Z,14.89
2018-09-14T20:38:36.776Z,14.92
2018-09-14T20:41:05.241Z,14.93
2018-09-14T20:43:33.825Z,14.94
2018-09-14T20:46:02.395Z,14.94
2018-09-14T20:48:30.822Z,14.93
2018-09-14T20:50:59.307Z,14.93
2018-09-14T20:53:30.023Z,14.92
2018-09-14T20:55:58.460Z,14.92
2018-09-14T20:58:27.108Z,14.91
2018-09-14T21:00:56.649Z,14.89
2018-09-14T21:03:25.102Z,14.89
2018-09-14T21:05:53.980Z,14.88
2018-09-14T21:08:22.538Z,14.90
2018-09-14T21:10:51.374Z,14.90
2018-09-14T21:13:19.857Z,14.87
2018-09-14T21:15:49.225Z,14.88
2018-09-14T21:18:17.742Z,14.88
2018-09-14T21:20:46.281Z,14.90
2018-09-14T21:23:15.174Z,14.87
2018-09-14T21:25:43.638Z,14.84
2018-09-14T21:28:12.073Z,14.82
2018-09-14T21:30:40.917Z,14.82
2018-09-14T21:33:09.358Z,14.80
2018-09-14T21:35:37.799Z,14.79
2018-09-14T21:38:06.684Z,14.81
2018-09-14T21:40:35.145Z,14.81
2018-09-14T21:43:03.626Z,14.84
2018-09-14T21:45:32.433Z,14.83
2018-09-14T21:48:00.888Z,14.83
2018-09-14T21:50:29.371Z,14.84
2018-09-14T21:52:57.887Z,14.83
2018-09-14T21:55:26.669Z,14.80
2018-09-14T21:57:55.120Z,14.78
2018-09-14T22:00:28.757Z,14.74
2018-09-14T22:02:57.566Z,14.70
2018-09-14T22:05:26.024Z,14.66
2018-09-14T22:07:54.513Z,14.64
2018-09-14T22:10:23.233Z,14.65
2018-09-14T22:12:53.214Z,14.64
2018-09-14T22:15:21.856Z,14.63
2018-09-14T22:17:50.658Z,14.60
2018-09-14T22:20:19.089Z,14.60
2018-09-14T22:22:47.725Z,14.59
2018-09-14T22:25:16.770Z,14.60
2018-09-14T22:27:45.215Z,14.59
2018-09-14T22:30:13.693Z,14.60
2018-09-14T22:32:42.690Z,14.62
2018-09-14T22:35:11.285Z,14.60
2018-09-14T22:37:39.701Z,14.63
2018-09-14T22:40:08.213Z,14.63
2018-09-14T22:42:36.669Z,14.65
2018-09-14T22:45:05.462Z,14.65
2018-09-14T22:47:33.985Z,14.65
2018-09-14T22:50:02.477Z,14.68
2018-09-14T22:52:30.927Z,14.67
2018-09-14T22:54:59.690Z,14.66
2018-09-14T22:57:28.268Z,14.65
2018-09-14T22:59:56.745Z,14.66
2018-09-14T23:02:25.670Z,14.65
2018-09-14T23:04:54.134Z,14.65
2018-09-14T23:07:22.625Z,14.66
2018-09-14T23:09:51.149Z,14.68
2018-09-14T23:12:19.597Z,14.69
2018-09-14T23:14:49.316Z,14.67
2018-09-14T23:17:18.660Z,14.68
2018-09-14T23:19:47.163Z,14.70
2018-09-14T23:22:15.639Z,14.69
2018-09-14T23:24:45.141Z,14.68
2018-09-14T23:27:13.571Z,14.67
2018-09-14T23:29:42.114Z,14.67
2018-09-14T23:32:10.768Z,14.65
2018-09-14T23:34:39.185Z,14.65
2018-09-14T23:37:07.652Z,14.66
2018-09-14T23:39:36.506Z,14.65
2018-09-14T23:42:04.989Z,14.65
2018-09-14T23:44:33.473Z,14.64
2018-09-14T23:47:02.306Z,14.66
2018-09-14T23:49:30.744Z,14.65
2018-09-14T23:51:59.249Z,14.65
2018-09-14T23:54:27.771Z,14.65
2018-09-14T23:56:56.290Z,14.64
2018-09-14T23:59:24.914Z,14.63
